Mark Center, Ohio
Current Conditions -  °F | °C
As of 3:53 AM on Friday 31 Oct 2014 (Local Time) from KDFI Reporting Station
Overcast Overcast  
Wind Chill: 42°   Ceiling: 7500
Heat Index: 44°   Visibility: 10mi
Dew Point: 36°   Wind: 5mph
Humidity: 73%   Direction: 220°SW
Pressure: 29.98"   Gusts: NA
Location:  41.29°N, 84.63°W
Report Text: KDFI 310753Z AUTO 22004KT 10SM OVC075 07/02 A2998 RMK AO2 SLP156 T00670022 $
Loading
Personal Weather Stations






























Interactive Weather Map
Tropical Storm Tracking
New forecast layout! Learn more

10-Day Weather Forecast

Advertisements
Track Severe Weather on mobile